createdAt,value
2018-09-15T00:00:06.312Z,4.43
2018-09-15T00:02:34.882Z,4.53
2018-09-15T00:05:03.553Z,4.50
2018-09-15T00:07:32.237Z,3.73
2018-09-15T00:10:01.034Z,4.10
2018-09-15T00:12:29.606Z,4.30
2018-09-15T00:14:58.205Z,4.53
2018-09-15T00:17:26.945Z,4.30
2018-09-15T00:19:55.623Z,4.07
2018-09-15T00:22:24.273Z,3.93
2018-09-15T00:24:52.957Z,3.77
2018-09-15T00:27:21.579Z,3.90
2018-09-15T00:29:50.168Z,3.83
2018-09-15T00:32:18.788Z,3.37
2018-09-15T00:34:47.376Z,3.27
2018-09-15T00:37:16.068Z,3.00
2018-09-15T00:39:44.696Z,2.97
2018-09-15T00:42:13.243Z,3.17
2018-09-15T00:44:41.805Z,3.27
2018-09-15T00:47:10.388Z,3.77
2018-09-15T00:49:38.985Z,3.23
2018-09-15T00:52:07.544Z,3.27
2018-09-15T00:54:36.238Z,3.30
2018-09-15T00:57:05.058Z,3.97
2018-09-15T00:59:33.737Z,3.00
2018-09-15T01:02:02.295Z,3.23
2018-09-15T01:04:30.920Z,3.57
2018-09-15T01:07:00.247Z,3.47
2018-09-15T01:09:28.915Z,3.10
2018-09-15T01:11:57.503Z,2.73
2018-09-15T01:14:26.201Z,2.90
2018-09-15T01:16:54.853Z,3.00
2018-09-15T01:19:23.486Z,2.77
2018-09-15T01:21:52.118Z,3.10
2018-09-15T01:24:20.677Z,3.00
2018-09-15T01:26:49.261Z,3.27
2018-09-15T01:29:17.923Z,3.40
2018-09-15T01:31:46.572Z,3.33
2018-09-15T01:34:15.244Z,2.77
2018-09-15T01:36:43.934Z,3.13
2018-09-15T01:39:12.487Z,2.87
2018-09-15T01:41:41.143Z,2.93
2018-09-15T01:44:09.863Z,3.10
2018-09-15T01:46:38.476Z,2.60
2018-09-15T01:49:07.279Z,2.93
2018-09-15T01:51:36.009Z,2.57
2018-09-15T01:54:04.641Z,2.57
2018-09-15T01:56:33.307Z,2.20
2018-09-15T01:59:01.915Z,2.57
2018-09-15T02:01:30.504Z,2.60
2018-09-15T02:03:59.179Z,2.67
2018-09-15T02:06:27.752Z,2.40
2018-09-15T02:08:56.357Z,2.80
2018-09-15T02:11:24.899Z,2.60
2018-09-15T02:13:53.517Z,2.50
2018-09-15T02:16:22.214Z,2.23
2018-09-15T02:18:51.512Z,2.70
2018-09-15T02:21:20.074Z,2.47
2018-09-15T02:23:48.788Z,3.30
2018-09-15T02:26:18.074Z,2.87
2018-09-15T02:28:47.144Z,2.57
2018-09-15T02:31:15.723Z,2.80
2018-09-15T02:33:44.343Z,2.37
2018-09-15T02:36:12.991Z,3.27
2018-09-15T02:38:41.591Z,2.77
2018-09-15T02:41:10.169Z,2.63
2018-09-15T02:43:38.748Z,2.87
2018-09-15T02:46:07.901Z,3.37
2018-09-15T02:48:36.488Z,2.57
2018-09-15T02:51:05.180Z,2.90
2018-09-15T02:53:33.825Z,2.73
2018-09-15T02:56:02.433Z,2.83
2018-09-15T02:58:31.719Z,2.70
2018-09-15T03:01:00.505Z,2.20
2018-09-15T03:03:29.072Z,2.83
2018-09-15T03:05:58.220Z,3.07
2018-09-15T03:08:26.926Z,2.83
2018-09-15T03:10:55.905Z,2.83
2018-09-15T03:13:24.912Z,3.53
2018-09-15T03:15:53.570Z,3.07
2018-09-15T03:18:22.146Z,3.03
2018-09-15T03:20:50.783Z,3.47
2018-09-15T03:23:19.530Z,3.50
2018-09-15T03:25:48.383Z,3.37
2018-09-15T03:28:16.941Z,3.20
2018-09-15T03:30:45.590Z,3.27
2018-09-15T03:33:14.160Z,3.43
2018-09-15T03:35:42.787Z,3.27
2018-09-15T03:38:11.490Z,3.50
2018-09-15T03:40:40.073Z,3.40
2018-09-15T03:43:08.693Z,3.23
2018-09-15T03:45:38.537Z,3.37
2018-09-15T03:48:07.111Z,3.53
2018-09-15T03:50:35.689Z,3.37
2018-09-15T03:53:04.373Z,3.17
2018-09-15T03:55:33.080Z,3.43
2018-09-15T03:58:01.743Z,3.30
2018-09-15T04:00:43.108Z,3.57
2018-09-15T04:03:11.706Z,4.03
2018-09-15T04:05:40.314Z,3.83
2018-09-15T04:08:08.869Z,3.43
2018-09-15T04:10:37.453Z,3.80
2018-09-15T04:13:06.140Z,4.10
2018-09-15T04:15:34.986Z,4.07
2018-09-15T04:18:03.664Z,4.30
2018-09-15T04:20:32.207Z,4.10
2018-09-15T04:23:00.880Z,4.77
2018-09-15T04:25:29.600Z,4.33
2018-09-15T04:27:58.177Z,3.93
2018-09-15T04:30:26.740Z,3.80
2018-09-15T04:32:55.877Z,3.83
2018-09-15T04:35:24.482Z,3.70
2018-09-15T04:37:53.138Z,4.03
2018-09-15T04:40:21.810Z,4.57
2018-09-15T04:42:50.472Z,4.17
2018-09-15T04:45:19.119Z,4.27
2018-09-15T04:47:47.861Z,5.10
2018-09-15T04:50:16.656Z,4.93
2018-09-15T04:52:45.396Z,4.37
2018-09-15T04:55:14.064Z,4.47
2018-09-15T04:57:42.702Z,4.23
2018-09-15T05:00:11.598Z,4.20
2018-09-15T05:02:40.239Z,4.70
2018-09-15T05:05:09.648Z,4.10
2018-09-15T05:07:38.380Z,4.57
2018-09-15T05:10:07.077Z,4.00
2018-09-15T05:12:35.877Z,3.97
2018-09-15T05:15:04.805Z,4.70
2018-09-15T05:17:33.533Z,4.00
2018-09-15T05:20:02.267Z,4.80
2018-09-15T05:22:30.812Z,4.63
2018-09-15T05:24:59.499Z,4.87
2018-09-15T05:27:28.387Z,4.17
2018-09-15T05:29:57.078Z,4.60
2018-09-15T05:32:25.745Z,4.43
2018-09-15T05:34:59.452Z,4.50
2018-09-15T05:37:28.082Z,4.10
2018-09-15T05:39:56.765Z,4.57
2018-09-15T05:42:25.365Z,4.73
2018-09-15T05:44:54.021Z,4.20
2018-09-15T05:47:22.688Z,4.40
2018-09-15T05:49:52.692Z,4.47
2018-09-15T05:52:21.257Z,4.37
2018-09-15T05:54:49.838Z,4.30
2018-09-15T05:57:18.400Z,4.13
2018-09-15T05:59:47.095Z,5.13
2018-09-15T06:02:15.790Z,4.60
2018-09-15T06:08:25.500Z,5.40
2018-09-15T06:10:54.092Z,5.03
2018-09-15T06:13:22.667Z,4.80
2018-09-15T06:15:51.641Z,5.00
2018-09-15T06:18:20.193Z,5.43
2018-09-15T06:20:48.801Z,5.07
2018-09-15T06:23:17.400Z,4.73
2018-09-15T06:25:46.036Z,5.67
2018-09-15T06:28:14.616Z,4.93
2018-09-15T06:30:43.188Z,5.30
2018-09-15T06:33:11.747Z,5.07
2018-09-15T06:35:40.452Z,5.43
2018-09-15T06:38:09.091Z,4.63
2018-09-15T06:40:37.675Z,5.17
2018-09-15T06:43:06.283Z,5.27
2018-09-15T06:45:34.919Z,5.63
2018-09-15T06:48:03.478Z,5.30
2018-09-15T06:50:32.028Z,6.00
2018-09-15T06:53:00.625Z,5.80
2018-09-15T06:55:29.233Z,6.03
2018-09-15T06:57:57.825Z,6.27
2018-09-15T07:00:26.464Z,5.07
2018-09-15T07:02:55.021Z,6.60
2018-09-15T07:05:23.584Z,6.57
2018-09-15T07:07:52.190Z,6.10
2018-09-15T07:10:20.775Z,7.20
2018-09-15T07:12:49.405Z,6.23
2018-09-15T07:15:18.031Z,7.17
2018-09-15T07:17:46.594Z,6.43
2018-09-15T07:20:15.286Z,6.03
2018-09-15T07:22:43.830Z,6.77
2018-09-15T07:25:12.440Z,6.20
2018-09-15T07:27:41.020Z,6.63
2018-09-15T07:30:09.628Z,5.87
2018-09-15T07:32:38.208Z,6.70
2018-09-15T07:35:06.825Z,5.97
2018-09-15T07:37:35.468Z,6.87
2018-09-15T07:40:07.686Z,6.20
2018-09-15T07:42:36.311Z,6.17
2018-09-15T07:45:05.033Z,6.33
2018-09-15T07:47:33.624Z,6.07
2018-09-15T07:50:02.238Z,6.27
2018-09-15T07:52:30.872Z,6.90
2018-09-15T07:54:59.460Z,6.17
2018-09-15T07:57:28.211Z,7.07
2018-09-15T07:59:56.752Z,7.50
2018-09-15T08:02:25.311Z,7.00
2018-09-15T08:04:53.995Z,6.43
2018-09-15T08:07:22.729Z,6.90
2018-09-15T08:09:51.373Z,8.03
2018-09-15T08:12:20.579Z,7.23
2018-09-15T08:14:49.465Z,8.10
2018-09-15T08:17:18.095Z,6.40
2018-09-15T08:19:46.686Z,7.43
2018-09-15T08:22:15.302Z,7.73
2018-09-15T08:24:43.936Z,7.47
2018-09-15T08:27:12.573Z,7.40
2018-09-15T08:29:41.385Z,6.97
2018-09-15T08:32:10.301Z,6.60
2018-09-15T08:34:39.027Z,8.00
2018-09-15T08:37:07.678Z,8.00
2018-09-15T08:39:50.282Z,7.40
2018-09-15T08:42:18.935Z,8.20
2018-09-15T08:44:47.858Z,7.07
2018-09-15T08:47:16.518Z,7.20
2018-09-15T08:49:45.181Z,7.47
2018-09-15T08:52:13.848Z,7.67
2018-09-15T08:54:42.494Z,6.33
2018-09-15T08:57:11.056Z,6.90
2018-09-15T08:59:39.760Z,7.50
2018-09-15T09:02:12.667Z,5.97
2018-09-15T09:04:42.065Z,6.23
2018-09-15T09:07:10.857Z,5.00
2018-09-15T09:09:39.473Z,5.80
2018-09-15T09:12:08.448Z,4.53
2018-09-15T09:14:37.061Z,4.83
2018-09-15T09:17:05.784Z,4.70
2018-09-15T09:19:34.453Z,4.27
2018-09-15T09:22:03.029Z,5.33
2018-09-15T09:24:31.650Z,5.00
2018-09-15T09:27:00.202Z,5.27
2018-09-15T09:29:28.834Z,4.43
2018-09-15T09:31:57.520Z,3.80
2018-09-15T09:34:26.089Z,4.63
2018-09-15T09:36:54.697Z,4.10
2018-09-15T09:39:23.381Z,3.90
2018-09-15T09:41:52.013Z,3.73
2018-09-15T09:44:20.625Z,3.53
2018-09-15T09:47:19.853Z,3.60
2018-09-15T09:49:48.428Z,3.90
2018-09-15T09:52:17.025Z,4.10
2018-09-15T09:54:46.358Z,3.70
2018-09-15T09:57:14.994Z,4.47
2018-09-15T09:59:43.703Z,4.27
2018-09-15T10:02:13.797Z,3.63
2018-09-15T10:04:42.588Z,4.33
2018-09-15T10:07:11.384Z,3.47
2018-09-15T10:09:39.872Z,3.47
2018-09-15T10:12:08.540Z,2.70
2018-09-15T10:14:37.101Z,3.00
2018-09-15T10:17:06.045Z,3.20
2018-09-15T10:19:34.625Z,3.37
2018-09-15T10:22:03.212Z,3.30
2018-09-15T10:24:31.836Z,3.10
2018-09-15T10:27:00.396Z,2.63
2018-09-15T10:29:30.114Z,2.63
2018-09-15T10:31:58.763Z,3.20
2018-09-15T10:34:29.000Z,2.80
2018-09-15T10:36:57.713Z,2.40
2018-09-15T10:39:27.138Z,3.00
2018-09-15T10:41:55.718Z,2.70
2018-09-15T10:44:32.220Z,3.13
2018-09-15T10:47:00.773Z,3.20
2018-09-15T10:49:29.350Z,3.33
2018-09-15T10:51:57.898Z,3.03
2018-09-15T10:54:26.453Z,3.00
2018-09-15T10:56:55.038Z,3.30
2018-09-15T10:59:23.594Z,3.00
2018-09-15T11:01:52.182Z,2.63
2018-09-15T11:04:20.758Z,2.73
2018-09-15T11:06:49.301Z,3.30
2018-09-15T11:09:17.890Z,2.50
2018-09-15T11:11:46.463Z,3.10
2018-09-15T11:14:15.037Z,3.63
2018-09-15T11:16:43.631Z,2.47
2018-09-15T11:19:12.214Z,2.60
2018-09-15T11:21:40.816Z,2.67
2018-09-15T11:24:09.395Z,3.37
2018-09-15T11:26:38.019Z,3.03
2018-09-15T11:29:06.913Z,2.80
2018-09-15T11:31:35.469Z,2.50
2018-09-15T11:34:04.123Z,2.20
2018-09-15T11:36:32.645Z,3.13
2018-09-15T11:39:06.543Z,2.40
2018-09-15T11:41:35.118Z,2.80
2018-09-15T11:44:03.693Z,2.80
2018-09-15T11:46:32.400Z,2.53
2018-09-15T11:49:00.928Z,2.63
2018-09-15T11:51:29.472Z,3.10
2018-09-15T11:53:58.095Z,3.40
2018-09-15T11:56:26.677Z,2.90
2018-09-15T11:58:55.243Z,3.20
2018-09-15T12:01:23.789Z,2.30
2018-09-15T12:03:52.493Z,2.83
2018-09-15T12:06:21.040Z,2.63
2018-09-15T12:08:49.624Z,2.33
2018-09-15T12:11:18.262Z,2.60
2018-09-15T12:13:46.830Z,2.17
2018-09-15T12:16:15.429Z,2.27
2018-09-15T12:18:44.065Z,2.30
2018-09-15T12:21:12.642Z,2.47
2018-09-15T12:23:41.225Z,2.67
2018-09-15T12:26:09.796Z,2.20
2018-09-15T12:28:38.384Z,2.57
2018-09-15T12:31:07.086Z,2.63
2018-09-15T12:33:35.799Z,2.67
2018-09-15T12:36:04.302Z,2.23
2018-09-15T12:38:32.886Z,3.13
2018-09-15T12:41:01.516Z,2.77
2018-09-15T12:43:30.097Z,2.80
2018-09-15T12:45:58.700Z,2.33
2018-09-15T12:48:27.253Z,2.60
2018-09-15T12:50:55.891Z,2.50
2018-09-15T12:53:24.711Z,2.83
2018-09-15T12:55:53.368Z,3.40
2018-09-15T12:58:22.057Z,3.07
2018-09-15T13:00:50.639Z,3.17
2018-09-15T13:03:19.247Z,2.83
2018-09-15T13:05:47.823Z,2.97
2018-09-15T13:08:16.403Z,2.80
2018-09-15T13:10:44.943Z,2.97
2018-09-15T13:13:13.533Z,2.83
2018-09-15T13:15:42.106Z,3.53
2018-09-15T13:18:10.661Z,2.93
2018-09-15T13:20:39.244Z,4.00
2018-09-15T13:23:07.797Z,2.93
2018-09-15T13:25:36.355Z,3.40
2018-09-15T13:28:04.971Z,2.67
2018-09-15T13:30:33.545Z,3.17
2018-09-15T13:33:02.096Z,3.33
2018-09-15T13:35:30.648Z,2.80
2018-09-15T13:37:59.312Z,3.00
2018-09-15T13:40:27.836Z,3.13
2018-09-15T13:42:56.425Z,2.63
2018-09-15T13:45:24.957Z,2.60
2018-09-15T13:47:53.524Z,2.40
2018-09-15T13:50:22.102Z,2.33
2018-09-15T13:52:50.673Z,2.57
2018-09-15T13:55:19.258Z,2.57
2018-09-15T13:57:47.820Z,3.33
2018-09-15T14:00:16.395Z,2.90
2018-09-15T14:02:45.121Z,3.03
2018-09-15T14:05:14.679Z,3.03
2018-09-15T14:07:43.674Z,2.60
2018-09-15T14:10:19.007Z,3.03
2018-09-15T14:12:41.331Z,2.87
2018-09-15T14:15:09.908Z,3.03
2018-09-15T14:17:38.503Z,2.80
2018-09-15T14:20:07.213Z,2.63
2018-09-15T14:22:35.825Z,2.90
2018-09-15T14:25:04.611Z,2.40
2018-09-15T14:27:33.178Z,2.87
2018-09-15T14:30:01.741Z,3.27
2018-09-15T14:32:30.338Z,3.00
2018-09-15T14:34:58.970Z,3.30
2018-09-15T14:37:28.318Z,3.33
2018-09-15T14:39:56.897Z,3.03
2018-09-15T14:42:25.485Z,3.23
2018-09-15T14:44:54.096Z,3.33
2018-09-15T14:47:22.702Z,3.50
2018-09-15T14:49:51.264Z,3.63
2018-09-15T14:52:19.836Z,3.37
2018-09-15T14:54:48.450Z,3.40
2018-09-15T14:57:17.026Z,3.20
2018-09-15T14:59:45.598Z,3.20
2018-09-15T15:02:14.203Z,3.00
2018-09-15T15:04:42.796Z,3.83
2018-09-15T15:07:11.364Z,3.50
2018-09-15T15:09:39.943Z,3.10
2018-09-15T15:12:08.500Z,4.03
2018-09-15T15:14:37.085Z,3.53
2018-09-15T15:17:05.811Z,3.00
2018-09-15T15:19:34.441Z,3.80
2018-09-15T15:22:03.013Z,3.67
2018-09-15T15:24:31.609Z,3.97
2018-09-15T15:27:00.353Z,4.13
2018-09-15T15:29:28.880Z,4.53
2018-09-15T15:31:57.471Z,3.80
2018-09-15T15:34:26.054Z,4.23
2018-09-15T15:36:54.615Z,4.03
2018-09-15T15:39:23.194Z,3.70
2018-09-15T15:41:52.501Z,3.73
2018-09-15T15:44:21.146Z,3.93
2018-09-15T15:46:49.733Z,4.00
2018-09-15T15:49:18.452Z,4.03
2018-09-15T15:51:47.097Z,3.70
2018-09-15T15:54:15.676Z,3.63
2018-09-15T15:56:44.234Z,3.67
2018-09-15T15:59:13.009Z,4.53
2018-09-15T16:01:41.680Z,3.83
2018-09-15T16:04:10.242Z,4.30
2018-09-15T16:06:38.859Z,3.60
2018-09-15T16:09:08.681Z,3.70
2018-09-15T16:11:37.986Z,4.20
2018-09-15T16:14:06.575Z,3.63
2018-09-15T16:16:35.133Z,3.00
2018-09-15T16:19:03.826Z,3.73
2018-09-15T16:21:32.400Z,3.77
2018-09-15T16:24:00.943Z,3.40
2018-09-15T16:26:29.574Z,3.50
2018-09-15T16:28:58.148Z,3.90
2018-09-15T16:31:26.717Z,2.93
2018-09-15T16:33:55.325Z,3.97
2018-09-15T16:36:23.935Z,3.83
2018-09-15T16:38:52.500Z,3.50
2018-09-15T16:41:21.072Z,3.30
2018-09-15T16:43:49.642Z,3.13
2018-09-15T16:46:18.207Z,3.30
2018-09-15T16:48:46.851Z,3.03
2018-09-15T16:51:15.444Z,3.30
2018-09-15T16:53:44.049Z,3.80
2018-09-15T16:56:13.039Z,3.33
2018-09-15T16:58:41.642Z,3.13
2018-09-15T17:01:10.201Z,3.23
2018-09-15T17:03:38.765Z,3.90
2018-09-15T17:06:07.393Z,3.57
2018-09-15T17:08:35.998Z,3.73
2018-09-15T17:11:04.610Z,3.00
2018-09-15T17:13:33.145Z,2.90
2018-09-15T17:16:01.878Z,3.97
2018-09-15T17:18:30.460Z,3.73
2018-09-15T17:20:59.013Z,4.03
2018-09-15T17:23:27.627Z,3.80
2018-09-15T17:25:56.189Z,3.93
2018-09-15T17:28:24.786Z,4.07
2018-09-15T17:30:53.744Z,4.10
2018-09-15T17:33:22.318Z,4.27
2018-09-15T17:35:50.926Z,3.53
2018-09-15T17:38:19.505Z,4.00
2018-09-15T17:40:48.078Z,4.17
2018-09-15T17:43:16.677Z,4.00
2018-09-15T17:45:45.304Z,3.17
2018-09-15T17:48:13.850Z,3.77
2018-09-15T17:50:42.438Z,3.70
2018-09-15T17:53:11.051Z,3.87
2018-09-15T17:55:39.666Z,3.87
2018-09-15T17:58:08.228Z,3.90
2018-09-15T18:00:36.806Z,3.83
2018-09-15T18:03:05.437Z,3.47
2018-09-15T18:05:34.125Z,4.23
2018-09-15T18:08:02.889Z,4.57
2018-09-15T18:10:31.495Z,5.30
2018-09-15T18:13:00.124Z,5.03
2018-09-15T18:15:28.692Z,5.23
2018-09-15T18:17:57.286Z,5.23
2018-09-15T18:20:25.882Z,4.80
2018-09-15T18:22:54.486Z,5.40
2018-09-15T18:25:23.036Z,4.47
2018-09-15T18:27:51.624Z,4.63
2018-09-15T18:30:20.233Z,4.57
2018-09-15T18:32:48.814Z,4.63
2018-09-15T18:35:17.390Z,4.43
2018-09-15T18:37:45.981Z,4.57
2018-09-15T18:40:14.591Z,4.50
2018-09-15T18:42:43.163Z,5.00
2018-09-15T18:45:11.789Z,5.70
2018-09-15T18:47:40.410Z,5.60
2018-09-15T18:50:09.076Z,5.13
2018-09-15T18:52:37.653Z,5.53
2018-09-15T18:55:06.275Z,6.27
2018-09-15T18:57:34.817Z,5.23
2018-09-15T19:00:03.661Z,4.43
2018-09-15T19:02:32.238Z,5.07
2018-09-15T19:05:00.801Z,5.23
2018-09-15T19:07:29.572Z,4.70
2018-09-15T19:09:58.124Z,5.10
2018-09-15T19:12:26.728Z,4.90
2018-09-15T19:14:55.321Z,5.23
2018-09-15T19:17:23.904Z,5.83
2018-09-15T19:19:52.685Z,6.07
2018-09-15T19:22:21.265Z,4.40
2018-09-15T19:24:50.004Z,4.90
2018-09-15T19:27:18.582Z,6.57
2018-09-15T19:29:47.168Z,6.90
2018-09-15T19:32:15.738Z,7.57
2018-09-15T19:34:44.313Z,7.43
2018-09-15T19:37:12.917Z,7.10
2018-09-15T19:39:41.513Z,7.27
2018-09-15T19:42:10.101Z,5.50
2018-09-15T19:44:38.677Z,5.90
2018-09-15T19:47:07.271Z,6.03
2018-09-15T19:49:35.839Z,6.13
2018-09-15T19:52:04.476Z,6.97
2018-09-15T19:54:33.088Z,7.67
2018-09-15T19:57:01.634Z,6.53
2018-09-15T19:59:30.221Z,9.37
2018-09-15T20:01:58.825Z,11.20
2018-09-15T20:04:27.449Z,12.30
2018-09-15T20:06:56.369Z,7.20
2018-09-15T20:09:51.300Z,6.03
2018-09-15T20:12:19.933Z,6.87
2018-09-15T20:14:48.532Z,7.60
2018-09-15T20:17:15.922Z,7.10
2018-09-15T20:19:43.271Z,8.50
2018-09-15T20:22:11.853Z,9.47
2018-09-15T20:24:40.600Z,9.50
2018-09-15T20:27:09.150Z,8.87
2018-09-15T20:29:37.734Z,8.80
2018-09-15T20:32:06.750Z,9.33
2018-09-15T20:34:35.468Z,8.70
2018-09-15T20:37:04.103Z,6.60
2018-09-15T20:39:32.736Z,8.70
2018-09-15T20:42:01.421Z,8.70
2018-09-15T20:44:30.030Z,8.73
2018-09-15T20:46:58.646Z,7.33
2018-09-15T20:49:27.460Z,6.87
2018-09-15T20:51:56.272Z,6.53
2018-09-15T20:54:24.869Z,6.90
2018-09-15T20:56:53.468Z,6.63
2018-09-15T20:59:22.085Z,7.00
2018-09-15T21:01:50.653Z,7.63
2018-09-15T21:04:20.055Z,6.67
2018-09-15T21:06:48.694Z,8.87
2018-09-15T21:09:17.466Z,8.00
2018-09-15T21:11:46.082Z,8.40
2018-09-15T21:14:14.669Z,7.93
2018-09-15T21:16:43.262Z,7.57
2018-09-15T21:19:11.953Z,6.30
2018-09-15T21:21:40.693Z,6.87
2018-09-15T21:24:09.283Z,6.30
2018-09-15T21:26:37.884Z,9.73
2018-09-15T21:29:06.470Z,9.30
2018-09-15T21:31:35.182Z,8.03
2018-09-15T21:34:04.150Z,6.93
2018-09-15T21:36:32.730Z,5.87
2018-09-15T21:39:01.290Z,6.30
2018-09-15T21:41:29.945Z,6.20
2018-09-15T21:43:58.542Z,6.13
2018-09-15T21:46:27.277Z,7.17
2018-09-15T21:48:56.012Z,6.43
2018-09-15T21:51:24.636Z,7.10
2018-09-15T21:53:53.225Z,7.30
2018-09-15T21:56:21.841Z,9.80
2018-09-15T22:01:24.249Z,8.87
2018-09-15T22:07:18.907Z,6.57
2018-09-15T22:09:47.811Z,8.70
2018-09-15T22:12:17.246Z,9.87
2018-09-15T22:14:45.804Z,8.50
2018-09-15T22:17:14.418Z,7.23
2018-09-15T22:19:44.021Z,8.73
2018-09-15T22:22:12.668Z,7.67
2018-09-15T22:24:41.197Z,7.13
2018-09-15T22:27:09.822Z,8.50
2018-09-15T22:29:38.455Z,7.53
2018-09-15T22:32:07.542Z,11.20
2018-09-15T22:34:36.140Z,6.60
2018-09-15T22:37:04.832Z,8.10
2018-09-15T22:39:33.465Z,10.47
2018-09-15T22:42:02.093Z,7.07
2018-09-15T22:45:34.134Z,6.77
2018-09-15T22:48:02.714Z,6.87
2018-09-15T22:50:31.354Z,5.60
2018-09-15T22:52:59.926Z,6.47
2018-09-15T22:55:28.624Z,6.80
2018-09-15T22:57:57.214Z,9.53
2018-09-15T23:00:25.841Z,7.93
2018-09-15T23:02:54.454Z,6.40
2018-09-15T23:05:23.785Z,9.17
2018-09-15T23:07:52.771Z,10.87
2018-09-15T23:10:21.460Z,7.53
2018-09-15T23:12:50.663Z,6.97
2018-09-15T23:15:19.272Z,5.93
2018-09-15T23:17:47.848Z,6.40
2018-09-15T23:20:16.492Z,4.70
2018-09-15T23:22:45.133Z,3.70
2018-09-15T23:25:13.717Z,5.20
2018-09-15T23:27:42.402Z,6.40
2018-09-15T23:30:11.073Z,11.17
2018-09-15T23:32:39.716Z,8.43
2018-09-15T23:35:08.310Z,5.60
2018-09-15T23:37:36.894Z,10.67
2018-09-15T23:40:05.508Z,7.37
2018-09-15T23:42:34.270Z,13.80
2018-09-15T23:45:02.846Z,8.40
2018-09-15T23:47:31.405Z,8.93
2018-09-15T23:50:00.029Z,7.93
2018-09-15T23:52:28.588Z,7.30
2018-09-15T23:54:57.225Z,13.10
2018-09-15T23:57:26.642Z,14.93
2018-09-15T23:59:55.306Z,11.10
